• Join FlightAware (Why Join?)
  • Login
  • US Flag 
11:22AM EST


 

Airport Tracker/Info


-or-


 

Live Flight TrackerFlight Track Log ✈ N317FL ✈ 26-Apr-2013 ✈ KTEB - KMIA

Flight Track Log - Related Links

Times and Time Zones

All times are in EDT time to prevent confusion due to time zone crossing. See the N317FL flight status page for this flight to view local times or setup timezone preferences in your user account.

Time Position Orientation Groundspeed Altitude Reporting Facility
EDT Latitude Longitude Course Direction KTS MPH feet Rate Location/Type
12:18PM 40.8640 -74.0540 174° South 161 185 800  Level FlightAware ADS-B
12:19PM 40.8755 -74.0449 31° Northeast 183 211 1,300 1,500 Climbing FlightAware ADS-B
12:19PM 40.8847 -74.0376 31° Northeast 191 220 1,500 1,200 Climbing FlightAware ADS-B
12:19PM 40.8872 -74.0362 23° Northeast 190 219 1,600 2,400 Climbing FlightAware ADS-B
12:19PM 40.8932 -74.0349 North 190 219 1,900 2,100 Climbing FlightAware ADS-B
12:19PM 40.8995 -74.0361 352° North 188 216 2,100 1,980 Climbing FlightAware ADS-B
12:19PM 40.9029 -74.0381 336° Northwest 191 220 2,300 1,980 Climbing FlightAware ADS-B
12:19PM 40.9060 -74.0408 327° Northwest 194 223 2,400 2,220 Climbing FlightAware ADS-B
12:19PM 40.9084 -74.0437 318° Northwest 195 224 2,600 2,220 Climbing FlightAware ADS-B
12:19PM 40.9108 -74.0483 305° West 198 228 2,700 1,500 Climbing FlightAware ADS-B
12:20PM 40.9122 -74.0524 294° West 200 230 2,800 720 Climbing FlightAware ADS-B
12:20PM 40.9132 -74.0570 286° West 206 237 2,800 720 Level FlightAware ADS-B
12:20PM 40.9136 -74.0629 275° West 211 243 2,900 840 Climbing FlightAware ADS-B
12:20PM 40.9134 -74.0669 266° West 215 247 2,900 840 Level FlightAware ADS-B
12:20PM 40.9129 -74.0718 262° West 221 254 3,000 1,500 Climbing FlightAware ADS-B
12:20PM 40.9123 -74.0771 261° West 227 261 3,100 2,520 Climbing FlightAware ADS-B
12:20PM 40.9116 -74.0814 258° West 228 262 3,300 3,060 Climbing FlightAware ADS-B
12:20PM 40.9061 -74.1143 258° West 234 269 4,500 2,580 Climbing FlightAware ADS-B
12:20PM 40.9043 -74.1254 258° West 231 266 4,700 1,620 Climbing FlightAware ADS-B
12:21PM 40.9032 -74.1302 253° West 229 264 4,800 1,500 Climbing FlightAware ADS-B
12:21PM 40.9012 -74.1361 246° West 228 262 4,900 660 Climbing FlightAware ADS-B
12:21PM 40.8985 -74.1417 237° Southwest 228 262 4,900  Level FlightAware ADS-B
12:21PM 40.8964 -74.1450 230° Southwest 229 264 4,900 720 Level FlightAware ADS-B
12:21PM 40.8932 -74.1494 226° Southwest 228 262 5,000 1,200 Climbing FlightAware ADS-B
12:21PM 40.8885 -74.1547 220° Southwest 228 262 5,100 600 Climbing FlightAware ADS-B
12:21PM 40.8850 -74.1579 215° Southwest 230 265 5,100 720 Level FlightAware ADS-B
12:21PM 40.8810 -74.1608 209° Southwest 232 267 5,200 720 Climbing FlightAware ADS-B
12:21PM 40.8775 -74.1627 202° Southwest 232 267 5,200 660 Level FlightAware ADS-B
12:21PM 40.8722 -74.1650 198° South 236 272 5,300 2,220 Climbing FlightAware ADS-B
12:21PM 40.8602 -74.1694 195° South 242 278 5,800 3,000 Climbing FlightAware ADS-B
12:22PM 40.8296 -74.1799 195° South 239 275 7,300 2,280 Climbing FlightAware ADS-B
12:22PM 40.8129 -74.1854 194° South 246 283 7,500 540 Climbing FlightAware ADS-B
12:22PM 40.7948 -74.1913 194° South 247 284 7,600 180 Climbing FlightAware ADS-B
12:23PM 40.7780 -74.1970 194° South 247 284 7,600  Level FlightAware ADS-B
12:23PM 40.7608 -74.2029 195° South 250 288 7,600  Level FlightAware ADS-B
12:23PM 40.7431 -74.2090 195° South 254 292 7,600 1,080 Level FlightAware ADS-B
12:23PM 40.7235 -74.2157 195° South 261 300 8,200 2,580 Climbing FlightAware ADS-B
12:24PM 40.7080 -74.2210 195° South 266 306 8,900 2,820 Climbing FlightAware ADS-B
12:24PM 40.7035 -74.2226 195° South 267 307 9,000 3,000 Climbing FlightAware ADS-B
12:24PM 40.6882 -74.2278 194° South 269 310 9,700 3,060 Climbing FlightAware ADS-B
12:24PM 40.6701 -74.2315 189° South 276 318 10,400 2,820 Climbing FlightAware ADS-B
12:24PM 40.6627 -74.2303 173° South 280 322 10,700 3,000 Climbing FlightAware ADS-B
12:24PM 40.6568 -74.2288 169° South 281 323 10,900 2,760 Climbing FlightAware ADS-B
12:24PM 40.6433 -74.2255 169° South 283 326 11,400 3,180 Climbing FlightAware ADS-B
12:25PM 40.6154 -74.2198 171° South 290 334 12,600 3,480 Climbing FlightAware ADS-B
12:25PM 40.5985 -74.2165 172° South 291 335 13,400 3,600 Climbing FlightAware ADS-B
12:25PM 40.5746 -74.2118 172° South 293 337 14,400 3,360 Climbing FlightAware ADS-B
12:26PM 40.5576 -74.2085 172° South 298 343 15,100 2,580 Climbing FlightAware ADS-B
12:26PM 40.5310 -74.2033 172° South 312 359 15,800 1,800 Climbing FlightAware ADS-B
12:26PM 40.5142 -74.2000 172° South 320 368 16,000 1,140 Climbing FlightAware ADS-B
12:26PM 40.4846 -74.1941 171° South 330 380 16,400 660 Climbing FlightAware ADS-B
12:27PM 40.4364 -74.1846 171° South 351 404 16,600 180 Climbing FlightAware ADS-B
12:27PM 40.3851 -74.1743 171° South 359 413 16,600  Level FlightAware ADS-B
12:28PM 40.3334 -74.1641 171° South 363 418 16,600  Level FlightAware ADS-B
12:28PM 40.3108 -74.1619 176° South 368 423 16,600 540 Level FlightAware ADS-B
12:28PM 40.2960 -74.1641 186° South 368 423 16,800 1,680 Climbing FlightAware ADS-B
12:28PM 40.2858 -74.1671 193° South 364 419 17,000 2,040 Climbing FlightAware ADS-B
12:29PM 40.2340 -74.1843 194° South 366 421 18,100 2,460 Climbing FlightAware ADS-B
12:29PM 40.1828 -74.1992 193° South 368 423 19,600 2,880 Climbing FlightAware ADS-B
12:30PM 40.1305 -74.2145 193° South 361 415 21,100 2,100 Climbing FlightAware ADS-B
12:31PM 40.0771 -74.2305 193° South 377 434 21,900 1,860 Climbing FlightAware ADS-B
12:31PM 40.0249 -74.2462 193° South 377 434 23,100 2,100 Climbing FlightAware ADS-B
12:31PM 40.0142 -74.2505 197° South 379 436 23,200 1,500 Climbing FlightAware ADS-B
12:31PM 40.0037 -74.2563 203° Southwest 378 435 23,400 2,400 Climbing FlightAware ADS-B
12:31PM 39.9835 -74.2730 212° Southwest 367 422 24,000 2,760 Climbing FlightAware ADS-B
12:32PM 39.9408 -74.3156 217° Southwest 358 412 25,600 2,640 Climbing FlightAware ADS-B
12:33PM 39.8977 -74.3559 216° Southwest 357 411 26,900 2,640 Climbing FlightAware ADS-B
12:33PM 39.8557 -74.3954 216° Southwest 351 404 28,400 2,820 Climbing FlightAware ADS-B
12:34PM 39.8194 -74.4300 216° Southwest 345 397 29,700 2,700 Climbing FlightAware ADS-B
12:34PM 39.8055 -74.4466 223° Southwest 338 389 30,200 1,920 Climbing FlightAware ADS-B
12:34PM 39.7649 -74.5018 226° Southwest 345 397 31,300 1,320 Climbing FlightAware ADS-B
12:35PM 39.7221 -74.5587 226° Southwest 368 423 31,900 600 Climbing FlightAware ADS-B
12:36PM 39.6817 -74.6122 226° Southwest 384 442 32,000 60 Climbing FlightAware ADS-B
12:36PM 39.6387 -74.6688 225° Southwest 389 448 32,000  Level FlightAware ADS-B
12:37PM 39.5977 -74.7225 225° Southwest 392 451 32,000  Level FlightAware ADS-B
12:37PM 39.5578 -74.7750 225° Southwest 399 459 32,000 1,440 Level FlightAware ADS-B
12:38PM 39.5060 -74.8430 225° Southwest 374 430 33,900 2,940 Climbing FlightAware
12:38PM 39.4868 -74.8676 225° Southwest 378 435 34,800 2,520 Climbing FlightAware ADS-B
12:39PM 39.4506 -74.9152 225° Southwest 361 415 35,600 1,740 Climbing FlightAware ADS-B
12:39PM 39.4084 -74.9705 225° Southwest 354 407 36,800 2,100 Climbing FlightAware ADS-B
12:40PM 39.3591 -75.0346 225° Southwest 329 379 38,500 1,920 Climbing FlightAware ADS-B
12:40PM 39.3273 -75.0762 225° Southwest 326 375 39,200 1,200 Climbing FlightAware ADS-B
12:41PM 39.2872 -75.1150 217° Southwest 330 380 39,800 1,140 Climbing FlightAware ADS-B
12:41PM 39.2824 -75.1178 204° Southwest 342 394 39,900 1,500 Climbing FlightAware ADS-B
12:41PM 39.2744 -75.1221 203° Southwest 345 397 40,000 1,200 Climbing FlightAware ADS-B
12:41PM 39.2602 -75.1281 198° South 349 402 40,200 1,140 Climbing FlightAware ADS-B
12:42PM 39.2040 -75.1510 198° South 344 396 40,900 1,020 Climbing FlightAware ADS-B
12:42PM 39.1560 -75.1716 198° South 342 394 41,400 960 Climbing FlightAware ADS-B
12:44PM 39.0520 -75.2158 198° South 339 390 42,600 960 Climbing FlightAware ADS-B
12:44PM 39.0054 -75.2354 198° South 332 382 43,100 840 Climbing FlightAware ADS-B
12:45PM 38.9604 -75.2544 198° South 333 383 43,500 540 Climbing FlightAware ADS-B
12:45PM 38.9084 -75.2764 198° South 336 387 43,700 420 Climbing FlightAware ADS-B
12:46PM 38.8596 -75.2968 198° South 341 392 44,000 420 Climbing FlightAware ADS-B
12:46PM 38.8180 -75.3140 198° South 342 394 44,200 480 Climbing FlightAware
12:47PM 38.7711 -75.3337 198° South 343 395 44,500 540 Climbing FlightAware ADS-B
12:47PM 38.7243 -75.3532 198° South 345 397 44,700 360 Climbing FlightAware ADS-B
12:48PM 38.6784 -75.3724 198° South 349 402 44,900 240 Climbing FlightAware ADS-B
12:48PM 38.6318 -75.3918 198° South 355 409 45,000 60 Climbing FlightAware ADS-B
12:49PM 38.5574 -75.4229 198° South 367 422 45,000  Level FlightAware ADS-B
12:50PM 38.4985 -75.4473 198° South 375 432 45,000  Level FlightAware ADS-B
12:51PM 38.3941 -75.4904 198° South 379 436 45,000  Level FlightAware ADS-B
12:51PM 38.3437 -75.5119 198° South 383 441 45,000  Level FlightAware ADS-B
12:52PM 38.2880 -75.5470 206° Southwest 379 436 45,000  Level FlightAware
12:52PM 38.2482 -75.5716 206° Southwest 380 437 45,000  Level FlightAware ADS-B
12:53PM 38.1673 -75.6219 206° Southwest 384 442 45,000  Level FlightAware ADS-B
12:54PM 38.1119 -75.6565 206° Southwest 386 444 45,000  Level FlightAware ADS-B
12:54PM 38.0509 -75.6945 206° Southwest 389 448 45,000  Level FlightAware ADS-B
12:55PM 37.9430 -75.7620 206° Southwest 390 449 45,000  Level FlightAware
12:56PM 37.8740 -75.8050 206° Southwest 392 451 45,000  Level FlightAware
12:57PM 37.8020 -75.8490 206° Southwest 394 453 45,000  Level FlightAware
12:58PM 37.7420 -75.8860 206° Southwest 396 456 45,000  Level FlightAware
12:58PM 37.6760 -75.9260 206° Southwest 396 456 45,000  Level FlightAware
12:59PM 37.5880 -75.9810 206° Southwest 397 457 45,000  Level FlightAware
12:59PM 37.5386 -76.0108 206° Southwest 398 458 45,000  Level FlightAware ADS-B
01:00PM 37.4852 -76.0436 206° Southwest 399 459 45,000  Level FlightAware ADS-B
01:01PM 37.4307 -76.0768 206° Southwest 400 460 45,000  Level FlightAware ADS-B
01:02PM 37.3390 -76.1330 206° Southwest 393 452 45,000  Level FlightAware
01:02PM 37.2550 -76.1840 206° Southwest 400 460 45,000  Level FlightAware
01:03PM 37.1820 -76.2280 206° Southwest 399 459 45,000  Level FlightAware
01:04PM 37.1080 -76.2730 206° Southwest 399 459 45,000  Level FlightAware
01:05PM 37.0450 -76.3110 206° Southwest 399 459 45,000  Level FlightAware
01:05PM 36.9615 -76.3614 206° Southwest 400 460 45,000  Level FlightAware ADS-B
01:06PM 36.8960 -76.4010 206° Southwest 399 459 45,000  Level FlightAware
01:07PM 36.8100 -76.4520 205° Southwest 400 460 45,000  Level FlightAware
01:07PM 36.7772 -76.4653 198° South 401 461 45,000  Level FlightAware ADS-B
01:07PM 36.7719 -76.4678 201° Southwest 407 468 45,000  Level FlightAware ADS-B
01:08PM 36.6636 -76.5214 201° Southwest 404 465 45,000  Level Washington Center
01:09PM 36.5653 -76.5669 200° South 404 465 45,000  Level Washington Center
01:10PM 36.4606 -76.6119 199° South 410 472 45,000  Level Washington Center
01:11PM 36.3517 -76.6622 200° South 410 472 45,000  Level Washington Center
01:12PM 36.2469 -76.7097 200° South 410 472 45,000  Level Washington Center
01:13PM 36.1400 -76.7572 200° South 410 472 45,000  Level Washington Center
01:19PM 35.5290 -77.0310 200° South 399 459 45,000  Level FlightAware
01:20PM 35.4350 -77.0730 200° South 398 458 45,000  Level FlightAware
01:20PM 35.3760 -77.0990 200° South 398 458 45,000  Level FlightAware
01:21PM 35.3180 -77.1250 200° South 398 458 45,000  Level FlightAware
01:22PM 35.2590 -77.1510 200° South 398 458 45,000  Level FlightAware
01:23PM 35.1850 -77.1840 200° South 398 458 45,000  Level FlightAware
01:23PM 35.1260 -77.2100 200° South 398 458 45,000  Level FlightAware
01:24PM 35.0680 -77.2370 201° Southwest 398 458 45,000  Level FlightAware
01:25PM 35.0090 -77.2630 200° South 398 458 45,000  Level FlightAware
01:25PM 34.9500 -77.2890 200° South 398 458 45,000  Level FlightAware
01:26PM 34.8910 -77.3150 200° South 398 458 45,000  Level FlightAware
01:27PM 34.8180 -77.3480 200° South 398 458 45,000  Level FlightAware
01:27PM 34.7730 -77.3670 199° South 398 458 45,000  Level FlightAware
01:28PM 34.7000 -77.4000 200° South 398 458 45,000  Level FlightAware
01:29PM 34.6410 -77.4260 200° South 398 458 45,000  Level FlightAware
01:33PM 34.0330 -77.6260 195° South 413 475 45,000  Level FlightAware
01:33PM 33.9630 -77.6490 195° South 415 478 45,000  Level FlightAware
01:34PM 33.8950 -77.6710 195° South 415 478 45,000  Level FlightAware
01:35PM 33.8010 -77.7010 195° South 416 479 45,000  Level FlightAware
01:36PM 33.7270 -77.7240 194° South 416 479 45,000  Level FlightAware
01:36PM 33.6510 -77.7490 195° South 417 480 45,000  Level FlightAware
01:37PM 33.5880 -77.7690 195° South 417 480 45,000  Level FlightAware
01:38PM 33.4790 -77.8020 194° South 417 480 45,000  Level FlightAware
01:38PM 33.4030 -77.8270 195° South 417 480 45,000  Level FlightAware
01:40PM 33.2320 -77.8810 195° South 417 480 45,000  Level FlightAware
01:41PM 33.1550 -77.9040 194° South 417 480 45,000  Level FlightAware
01:41PM 33.0780 -77.9300 196° South 418 481 45,000  Level FlightAware
01:42PM 33.0140 -77.9500 195° South 419 482 45,000  Level FlightAware
01:43PM 32.9300 -77.9760 195° South 419 482 45,000  Level FlightAware
01:43PM 32.8370 -78.0050 195° South 420 483 45,000  Level FlightAware
01:44PM 32.7520 -78.0320 195° South 421 484 45,000  Level FlightAware
01:45PM 32.6770 -78.0550 194° South 421 484 45,000  Level FlightAware
01:46PM 32.5920 -78.0820 195° South 422 486 45,000  Level FlightAware
01:46PM 32.5160 -78.1050 194° South 420 483 45,000  Level FlightAware
01:47PM 32.4190 -78.1350 195° South 419 482 45,000  Level FlightAware
01:48PM 32.3370 -78.1610 195° South 419 482 45,000  Level FlightAware
01:49PM 32.2550 -78.1860 194° South 419 482 45,000  Level FlightAware
01:49PM 32.1760 -78.2100 194° South 419 482 45,000  Level FlightAware
01:50PM 32.0930 -78.2360 195° South 419 482 45,000  Level FlightAware
01:51PM 32.0190 -78.2580 194° South 420 483 45,000  Level FlightAware
01:51PM 31.9410 -78.2830 195° South 419 482 45,000  Level FlightAware
01:52PM 31.8630 -78.3080 195° South 419 482 45,000  Level FlightAware
01:53PM 31.8000 -78.3280 195° South 419 482 45,000  Level FlightAware
01:54PM 31.7040 -78.3590 195° South 419 482 45,000  Level FlightAware
01:54PM 31.6400 -78.3790 195° South 419 482 45,000  Level FlightAware
01:55PM 31.5770 -78.3990 195° South 419 482 45,000  Level FlightAware
01:56PM 31.5130 -78.4190 195° South 419 482 45,000  Level FlightAware
01:56PM 31.4340 -78.4440 195° South 419 482 45,000  Level FlightAware
01:57PM 31.3700 -78.4640 195° South 419 482 45,000  Level FlightAware
01:58PM 31.3060 -78.4840 195° South 419 482 45,000  Level FlightAware
01:58PM 31.2430 -78.5040 195° South 419 482 45,000  Level FlightAware
01:59PM 31.1790 -78.5240 195° South 419 482 45,000  Level FlightAware
02:00PM 31.0990 -78.5490 195° South 419 482 45,000  Level FlightAware
02:01PM 31.0360 -78.5690 195° South 419 482 45,000  Level FlightAware
02:01PM 30.9720 -78.5890 195° South 419 482 45,000  Level FlightAware
02:02PM 30.9080 -78.6080 194° South 419 482 45,000  Level FlightAware
02:03PM 30.8450 -78.6280 195° South 419 482 45,000  Level FlightAware
02:03PM 30.6269 -78.6967 195° South 414 476 45,000  Level Miami Center
02:04PM 30.5039 -78.7161 188° South 421 484 45,000  Level Miami Center
02:05PM 30.3908 -78.7383 190° South 421 484 45,000  Level Miami Center
02:06PM 30.2781 -78.7581 189° South 427 491 45,000  Level Miami Center
02:07PM 30.1592 -78.7775 188° South 427 491 45,000  Level Miami Center
02:08PM 30.0442 -78.7969 188° South 421 484 45,000  Level Miami Center
02:09PM 29.9186 -78.8258 191° South 421 484 45,000  Level Miami Center
02:10PM 29.8097 -78.8550 193° South 426 490 45,000  Level Miami Center
02:11PM 29.6825 -78.8597 182° South 426 490 45,000  Level Miami Center
02:12PM 29.5656 -78.8742 186° South 426 490 45,000  Level Miami Center
02:13PM 29.4464 -78.8886 186° South 426 490 45,000  Level Miami Center
02:14PM 29.3314 -78.9056 187° South 426 490 45,000  Level Miami Center
02:15PM 29.2144 -78.9225 187° South 426 490 45,000  Level Miami Center
02:16PM 29.0931 -78.9392 187° South 426 490 45,000  Level Miami Center
02:22PM 28.4300 -79.0230 187° South 434 499 45,000  Level FlightAware
02:23PM 28.3310 -79.0360 187° South 434 499 45,000  Level FlightAware
02:23PM 28.2330 -79.0690 197° South 418 481 45,000 -1,080 Level FlightAware
02:25PM 28.0470 -79.1260 195° South 418 481 42,400 -1,800 Descending FlightAware
02:26PM 27.9430 -79.1580 195° South 414 476 40,500 -2,160 Descending FlightAware
02:27PM 27.8640 -79.1820 195° South 413 475 38,800 -2,400 Descending FlightAware
02:28PM 27.7560 -79.2150 195° South 36,500 -2,460 Descending FlightAware
02:29PM 27.6560 -79.2450 195° South 413 475 34,300 -2,580 Descending FlightAware
02:29PM 27.5810 -79.2680 195° South 419 482 32,700 -2,340 Descending FlightAware
02:30PM 27.5060 -79.2910 195° South 413 475 31,200 -2,280 Descending FlightAware
02:31PM 27.4200 -79.3170 195° South 413 475 29,500 -2,220 Descending FlightAware
02:31PM 27.3530 -79.3370 195° South 397 457 28,100 -2,160 Descending FlightAware
02:32PM 27.2880 -79.3570 195° South 396 456 26,800 -2,100 Descending FlightAware
02:33PM 27.2030 -79.3820 195° South 382 440 25,200 -1,920 Descending FlightAware
02:33PM 27.1370 -79.4020 195° South 369 425 24,000 -1,500 Descending FlightAware
02:34PM 27.0580 -79.4270 196° South 360 414 23,100 -1,140 Descending FlightAware
02:35PM 26.9910 -79.4470 195° South 378 435 22,400 -1,080 Descending FlightAware
02:36PM 26.9140 -79.4710 196° South 386 444 21,600 -1,140 Descending FlightAware
02:36PM 26.8420 -79.4930 195° South 400 460 20,800 -1,200 Descending FlightAware
02:37PM 26.7710 -79.5140 195° South 400 460 20,000 -1,200 Descending FlightAware
02:38PM 26.6580 -79.5500 196° South 382 440 18,700 -1,140 Descending FlightAware
02:39PM 26.5610 -79.6040 206° Southwest 375 432 17,600 -1,200 Descending FlightAware
02:39PM 26.5270 -79.6330 217° Southwest 374 430 16,900 -1,440 Descending FlightAware
02:40PM 26.4880 -79.6970 236° Southwest 362 417 16,100 -900 Descending FlightAware
02:41PM 26.4460 -79.7690 237° Southwest 359 413 15,700 -300 Descending FlightAware
02:42PM 26.4090 -79.8320 237° Southwest 359 413 15,700 -960 Level FlightAware
02:42PM 26.3620 -79.9000 232° Southwest 368 423 14,400 -1,740 Descending FlightAware
02:43PM 26.3110 -79.9530 223° Southwest 376 433 13,300 -1,740 Descending FlightAware
02:44PM 26.2520 -80.0100 221° Southwest 352 405 12,000 -1,740 Descending FlightAware
02:44PM 26.1920 -80.0300 197° South 336 387 10,900 -1,680 Descending FlightAware
02:45PM 26.1310 -80.0480 195° South 320 368 9,800 -1,080 Descending FlightAware
02:46PM 26.0890 -80.0600 194° South 314 361 9,700 -120 Descending FlightAware
02:46PM 26.0590 -80.0680 193° South 300 345 9,700 -900 Level FlightAware
02:46PM 26.0320 -80.0760 195° South 295 339 9,100 -1,620 Descending FlightAware
02:47PM 26.0000 -80.0850 194° South 285 328 8,500 -1,020 Descending FlightAware
02:48PM 25.9450 -80.1280 215° Southwest 278 320 7,800 -480 Descending FlightAware
02:48PM 25.9310 -80.1890 256° West 279 321 7,700 -120 Descending FlightAware
02:49PM 25.9270 -80.2260 263° West 280 322 7,700  Level FlightAware
02:49PM 25.9220 -80.2740 263° West 252 290 7,700 -600 Level FlightAware
02:50PM 25.9190 -80.3070 264° West 246 283 7,100 -1,680 Descending FlightAware
02:50PM 25.9140 -80.3440 261° West 246 283 6,200 -1,860 Descending FlightAware
02:51PM 25.9110 -80.3760 264° West 245 282 5,400 -1,860 Descending FlightAware
02:51PM 25.9070 -80.4150 264° West 245 282 4,500 -1,800 Descending FlightAware
02:52PM 25.8970 -80.4500 252° West 248 285 3,600 -1,680 Descending FlightAware
02:52PM 25.8870 -80.4570 212° Southwest 240 276 3,400 -1,200 Descending FlightAware
02:52PM 25.8760 -80.4580 185° South 229 264 3,200 -1,200 Descending FlightAware
02:52PM 25.8550 -80.4580 180° South 211 243 2,800 -900 Descending FlightAware
02:53PM 25.8430 -80.4510 152° Southeast 187 215 2,700 -240 Descending FlightAware
02:53PM 25.8360 -80.4390 123° Southeast 173 199 2,700 -600 Level FlightAware
02:53PM 25.8260 -80.4200 120° Southeast 173 199 2,300 -1,020 Descending FlightAware
02:54PM 25.8140 -80.3970 120° Southeast 172 198 1,800 -1,140 Descending FlightAware
02:54PM 25.8040 -80.3780 120° Southeast 155 178 1,300 -1,080 Descending FlightAware
02:54PM 25.8010 -80.3670 107° East 134 154 1,100 -720 Descending FlightAware
02:55PM 25.8010 -80.3490 90° East 113 130 800 -720 Descending FlightAware
02:55PM 25.8010 -80.3400 90° East 112 129 600 -840 Descending FlightAware
02:56PM 25.8030 -80.3090 86° East 101 116 -660 Descending FlightAware
02:56PM 25.8030 -80.2990 90° East 97 112  Level FlightAware